sensor_id;sensor_type;location;lat;lon;timestamp;pressure;altitude;pressure_sealevel;temperature;humidity
59877;BME280;45749;51.140;17.184;2022-11-20T00:01:32;99821.45;;;-4.03;82.55
59877;BME280;45749;51.140;17.184;2022-11-20T00:03:58;99823.69;;;-4.07;82.67
59877;BME280;45749;51.140;17.184;2022-11-20T00:06:26;99821.17;;;-4.10;82.74
59877;BME280;45749;51.140;17.184;2022-11-20T00:08:55;99819.05;;;-4.12;82.75
59877;BME280;45749;51.140;17.184;2022-11-20T00:11:24;99818.66;;;-4.13;82.63
59877;BME280;45749;51.140;17.184;2022-11-20T00:13:53;99816.58;;;-4.17;82.58
59877;BME280;45749;51.140;17.184;2022-11-20T00:16:23;99813.67;;;-4.21;82.66
59877;BME280;45749;51.140;17.184;2022-11-20T00:18:52;99812.00;;;-4.23;82.57
59877;BME280;45749;51.140;17.184;2022-11-20T00:21:20;99822.69;;;-4.21;82.70
59877;BME280;45749;51.140;17.184;2022-11-20T00:23:50;99815.02;;;-4.24;82.93
59877;BME280;45749;51.140;17.184;2022-11-20T00:26:19;99820.57;;;-4.23;83.00
59877;BME280;45749;51.140;17.184;2022-11-20T00:28:51;99822.69;;;-4.21;83.08
59877;BME280;45749;51.140;17.184;2022-11-20T00:31:25;99827.39;;;-4.20;83.06
59877;BME280;45749;51.140;17.184;2022-11-20T00:33:52;99825.28;;;-4.22;82.98
59877;BME280;45749;51.140;17.184;2022-11-20T00:36:20;99822.24;;;-4.20;82.78
59877;BME280;45749;51.140;17.184;2022-11-20T00:38:53;99820.11;;;-4.21;83.00
59877;BME280;45749;51.140;17.184;2022-11-20T00:41:23;99814.97;;;-4.22;82.93
59877;BME280;45749;51.140;17.184;2022-11-20T00:43:52;99820.17;;;-4.24;82.99
59877;BME280;45749;51.140;17.184;2022-11-20T00:46:21;99818.44;;;-4.23;82.86
59877;BME280;45749;51.140;17.184;2022-11-20T00:48:49;99814.59;;;-4.25;83.07
59877;BME280;45749;51.140;17.184;2022-11-20T00:51:18;99824.83;;;-4.22;83.14
59877;BME280;45749;51.140;17.184;2022-11-20T00:53:47;99821.92;;;-4.26;82.99
59877;BME280;45749;51.140;17.184;2022-11-20T00:56:17;99828.86;;;-4.30;83.03
59877;BME280;45749;51.140;17.184;2022-11-20T00:58:46;99827.23;;;-4.34;83.07
59877;BME280;45749;51.140;17.184;2022-11-20T01:01:14;99828.98;;;-4.36;83.19
59877;BME280;45749;51.140;17.184;2022-11-20T01:03:50;99832.02;;;-4.38;83.25
59877;BME280;45749;51.140;17.184;2022-11-20T01:06:17;99835.88;;;-4.38;83.20
59877;BME280;45749;51.140;17.184;2022-11-20T01:08:45;99835.53;;;-4.42;83.19
59877;BME280;45749;51.140;17.184;2022-11-20T01:11:17;99834.30;;;-4.45;83.18
59877;BME280;45749;51.140;17.184;2022-11-20T01:13:44;99834.34;;;-4.46;83.25
59877;BME280;45749;51.140;17.184;2022-11-20T01:16:20;99837.37;;;-4.47;83.43
59877;BME280;45749;51.140;17.184;2022-11-20T01:18:50;99836.48;;;-4.46;83.74
59877;BME280;45749;51.140;17.184;2022-11-20T01:21:27;99830.43;;;-4.43;83.75
59877;BME280;45749;51.140;17.184;2022-11-20T01:23:57;99833.80;;;-4.41;83.78
59877;BME280;45749;51.140;17.184;2022-11-20T01:26:26;99839.80;;;-4.41;83.75
59877;BME280;45749;51.140;17.184;2022-11-20T01:28:57;99835.98;;;-4.42;83.72
59877;BME280;45749;51.140;17.184;2022-11-20T01:31:34;99842.46;;;-4.44;83.73
59877;BME280;45749;51.140;17.184;2022-11-20T01:34:07;99839.02;;;-4.44;83.80
59877;BME280;45749;51.140;17.184;2022-11-20T01:36:38;99836.02;;;-4.44;83.90
59877;BME280;45749;51.140;17.184;2022-11-20T01:39:09;99830.44;;;-4.45;83.85
59877;BME280;45749;51.140;17.184;2022-11-20T01:41:38;99830.48;;;-4.46;83.71
59877;BME280;45749;51.140;17.184;2022-11-20T01:44:45;99834.36;;;-4.48;83.75
59877;BME280;45749;51.140;17.184;2022-11-20T01:47:37;99836.49;;;-4.48;83.86
59877;BME280;45749;51.140;17.184;2022-11-20T01:50:24;99835.59;;;-4.45;83.85
59877;BME280;45749;51.140;17.184;2022-11-20T01:53:00;99833.02;;;-4.45;83.89
59877;BME280;45749;51.140;17.184;2022-11-20T01:55:34;99827.86;;;-4.45;83.90
59877;BME280;45749;51.140;17.184;2022-11-20T01:58:03;99821.86;;;-4.44;83.86
59877;BME280;45749;51.140;17.184;2022-11-20T02:00:29;99814.59;;;-4.46;83.73
59877;BME280;45749;51.140;17.184;2022-11-20T02:03:02;99811.56;;;-4.45;83.71
59877;BME280;45749;51.140;17.184;2022-11-20T02:08:25;99818.63;;;-4.55;83.08
59877;BME280;45749;51.140;17.184;2022-11-20T02:10:51;99820.52;;;-4.65;83.22
59877;BME280;45749;51.140;17.184;2022-11-20T02:13:17;99817.20;;;-4.72;83.35
59877;BME280;45749;51.140;17.184;2022-11-20T02:16:02;99812.12;;;-4.75;83.65
59877;BME280;45749;51.140;17.184;2022-11-20T02:18:30;99816.77;;;-4.71;84.18
59877;BME280;45749;51.140;17.184;2022-11-20T02:21:03;99816.27;;;-4.67;84.32
59877;BME280;45749;51.140;17.184;2022-11-20T02:26:35;99809.77;;;-4.64;83.77
59877;BME280;45749;51.140;17.184;2022-11-20T02:29:03;99812.39;;;-4.66;84.10
59877;BME280;45749;51.140;17.184;2022-11-20T02:31:35;99811.11;;;-4.66;84.27
59877;BME280;45749;51.140;17.184;2022-11-20T02:34:02;99814.53;;;-4.65;84.24
59877;BME280;45749;51.140;17.184;2022-11-20T02:36:30;99816.26;;;-4.66;84.26
59877;BME280;45749;51.140;17.184;2022-11-20T02:38:57;99809.42;;;-4.67;84.15
59877;BME280;45749;51.140;17.184;2022-11-20T02:41:32;99816.66;;;-4.65;84.02
59877;BME280;45749;51.140;17.184;2022-11-20T02:44:00;99817.16;;;-4.68;83.56
59877;BME280;45749;51.140;17.184;2022-11-20T02:46:26;99820.72;;;-4.76;83.57
59877;BME280;45749;51.140;17.184;2022-11-20T02:48:52;99816.02;;;-4.76;83.75
59877;BME280;45749;51.140;17.184;2022-11-20T02:51:18;99821.17;;;-4.76;84.12
59877;BME280;45749;51.140;17.184;2022-11-20T02:53:44;99819.83;;;-4.73;84.19
59877;BME280;45749;51.140;17.184;2022-11-20T02:56:10;99815.12;;;-4.74;84.27
59877;BME280;45749;51.140;17.184;2022-11-20T02:58:36;99816.42;;;-4.75;84.09
59877;BME280;45749;51.140;17.184;2022-11-20T03:01:02;99818.60;;;-4.78;84.03
59877;BME280;45749;51.140;17.184;2022-11-20T03:03:28;99821.23;;;-4.81;84.08
59877;BME280;45749;51.140;17.184;2022-11-20T03:05:54;99817.41;;;-4.82;84.01
59877;BME280;45749;51.140;17.184;2022-11-20T03:08:20;99817.42;;;-4.84;84.08
59877;BME280;45749;51.140;17.184;2022-11-20T03:10:46;99815.73;;;-4.85;84.10
59877;BME280;45749;51.140;17.184;2022-11-20T03:13:11;99817.91;;;-4.86;84.10
59877;BME280;45749;51.140;17.184;2022-11-20T03:15:37;99813.65;;;-4.87;84.08
59877;BME280;45749;51.140;17.184;2022-11-20T03:18:04;99811.08;;;-4.87;84.12
59877;BME280;45749;51.140;17.184;2022-11-20T03:20:30;99802.12;;;-4.90;84.09
59877;BME280;45749;51.140;17.184;2022-11-20T03:22:58;99813.71;;;-4.91;84.00
59877;BME280;45749;51.140;17.184;2022-11-20T03:25:24;99810.75;;;-4.94;84.04
59877;BME280;45749;51.140;17.184;2022-11-20T03:27:49;99809.05;;;-4.95;84.16
59877;BME280;45749;51.140;17.184;2022-11-20T03:30:15;99808.66;;;-4.96;84.15
59877;BME280;45749;51.140;17.184;2022-11-20T03:32:41;99807.77;;;-4.95;84.10
59877;BME280;45749;51.140;17.184;2022-11-20T03:35:08;99809.10;;;-4.97;83.99
59877;BME280;45749;51.140;17.184;2022-11-20T03:37:35;99812.56;;;-4.99;83.95
59877;BME280;45749;51.140;17.184;2022-11-20T03:40:01;99813.91;;;-5.02;83.95
59877;BME280;45749;51.140;17.184;2022-11-20T03:42:27;99808.81;;;-5.05;83.91
59877;BME280;45749;51.140;17.184;2022-11-20T03:45:14;99810.11;;;-5.07;84.03
59877;BME280;45749;51.140;17.184;2022-11-20T03:47:42;99807.58;;;-5.08;84.24
59877;BME280;45749;51.140;17.184;2022-11-20T03:50:10;99802.43;;;-5.08;84.17
59877;BME280;45749;51.140;17.184;2022-11-20T03:52:40;99808.02;;;-5.09;84.24
59877;BME280;45749;51.140;17.184;2022-11-20T03:55:07;99805.89;;;-5.11;84.18
59877;BME280;45749;51.140;17.184;2022-11-20T03:57:33;99811.08;;;-5.12;84.10
59877;BME280;45749;51.140;17.184;2022-11-20T03:59:59;99810.25;;;-5.14;84.14
59877;BME280;45749;51.140;17.184;2022-11-20T04:02:25;99807.67;;;-5.14;84.38
59877;BME280;45749;51.140;17.184;2022-11-20T04:04:51;99804.65;;;-5.12;84.38
59877;BME280;45749;51.140;17.184;2022-11-20T04:07:17;99811.94;;;-5.13;84.23
59877;BME280;45749;51.140;17.184;2022-11-20T04:09:43;99813.72;;;-5.17;83.98
59877;BME280;45749;51.140;17.184;2022-11-20T04:12:09;99815.04;;;-5.19;83.98
59877;BME280;45749;51.140;17.184;2022-11-20T04:14:35;99819.79;;;-5.21;84.24
59877;BME280;45749;51.140;17.184;2022-11-20T04:17:01;99819.78;;;-5.20;84.58
59877;BME280;45749;51.140;17.184;2022-11-20T04:19:27;99819.30;;;-5.17;84.65
59877;BME280;45749;51.140;17.184;2022-11-20T04:21:52;99820.59;;;-5.17;84.40
59877;BME280;45749;51.140;17.184;2022-11-20T04:24:18;99818.05;;;-5.19;84.30
59877;BME280;45749;51.140;17.184;2022-11-20T04:26:44;99826.63;;;-5.20;84.35
59877;BME280;45749;51.140;17.184;2022-11-20T04:29:11;99824.53;;;-5.22;84.34
59877;BME280;45749;51.140;17.184;2022-11-20T04:31:37;99819.40;;;-5.24;84.30
59877;BME280;45749;51.140;17.184;2022-11-20T04:34:06;99823.30;;;-5.25;84.34
59877;BME280;45749;51.140;17.184;2022-11-20T04:36:33;99818.59;;;-5.27;84.30
59877;BME280;45749;51.140;17.184;2022-11-20T04:39:03;99813.02;;;-5.27;84.31
59877;BME280;45749;51.140;17.184;2022-11-20T04:41:35;99809.20;;;-5.28;84.54
59877;BME280;45749;51.140;17.184;2022-11-20T04:44:02;99809.59;;;-5.27;84.47
59877;BME280;45749;51.140;17.184;2022-11-20T04:46:35;99806.19;;;-5.28;84.54
59877;BME280;45749;51.140;17.184;2022-11-20T04:49:03;99802.33;;;-5.28;84.51
59877;BME280;45749;51.140;17.184;2022-11-20T04:51:30;99799.34;;;-5.29;84.48
59877;BME280;45749;51.140;17.184;2022-11-20T04:53:56;99795.50;;;-5.30;84.38
59877;BME280;45749;51.140;17.184;2022-11-20T04:56:22;99800.20;;;-5.30;84.19
59877;BME280;45749;51.140;17.184;2022-11-20T04:58:48;99807.51;;;-5.29;84.32
59877;BME280;45749;51.140;17.184;2022-11-20T05:01:20;99802.33;;;-5.28;84.64
59877;BME280;45749;51.140;17.184;2022-11-20T05:03:47;99800.16;;;-5.27;84.61
59877;BME280;45749;51.140;17.184;2022-11-20T05:06:15;99802.73;;;-5.27;84.46
59877;BME280;45749;51.140;17.184;2022-11-20T05:08:42;99799.30;;;-5.26;84.40
59877;BME280;45749;51.140;17.184;2022-11-20T05:11:18;99787.73;;;-5.27;84.20
59877;BME280;45749;51.140;17.184;2022-11-20T05:13:42;99781.84;;;-5.32;84.12
59877;BME280;45749;51.140;17.184;2022-11-20T05:16:11;99780.99;;;-5.33;84.28
59877;BME280;45749;51.140;17.184;2022-11-20T05:18:42;99781.05;;;-5.36;84.18
59877;BME280;45749;51.140;17.184;2022-11-20T05:21:09;99776.34;;;-5.38;84.29
59877;BME280;45749;51.140;17.184;2022-11-20T05:23:36;99769.08;;;-5.40;84.31
59877;BME280;45749;51.140;17.184;2022-11-20T05:26:03;99771.70;;;-5.43;84.31
59877;BME280;45749;51.140;17.184;2022-11-20T05:28:31;99767.04;;;-5.45;84.32
59877;BME280;45749;51.140;17.184;2022-11-20T05:31:09;99768.33;;;-5.45;84.47
59877;BME280;45749;51.140;17.184;2022-11-20T05:33:39;99773.91;;;-5.46;84.30
59877;BME280;45749;51.140;17.184;2022-11-20T05:36:07;99775.20;;;-5.46;84.05
59877;BME280;45749;51.140;17.184;2022-11-20T05:38:33;99770.50;;;-5.48;84.36
59877;BME280;45749;51.140;17.184;2022-11-20T05:41:11;99772.23;;;-5.48;84.08
59877;BME280;45749;51.140;17.184;2022-11-20T05:43:40;99772.73;;;-5.53;84.14
59877;BME280;45749;51.140;17.184;2022-11-20T05:46:09;99767.19;;;-5.54;84.22
59877;BME280;45749;51.140;17.184;2022-11-20T05:48:37;99764.58;;;-5.53;84.28
59877;BME280;45749;51.140;17.184;2022-11-20T05:51:05;99767.09;;;-5.48;84.34
59877;BME280;45749;51.140;17.184;2022-11-20T05:53:33;99771.79;;;-5.48;84.38
59877;BME280;45749;51.140;17.184;2022-11-20T05:56:02;99772.19;;;-5.45;84.61
59877;BME280;45749;51.140;17.184;2022-11-20T05:58:31;99771.34;;;-5.46;84.47
59877;BME280;45749;51.140;17.184;2022-11-20T06:01:13;99766.20;;;-5.47;84.47
59877;BME280;45749;51.140;17.184;2022-11-20T06:03:41;99770.11;;;-5.50;84.44
59877;BME280;45749;51.140;17.184;2022-11-20T06:06:09;99765.85;;;-5.51;84.25
59877;BME280;45749;51.140;17.184;2022-11-20T06:08:35;99768.88;;;-5.53;84.49
59877;BME280;45749;51.140;17.184;2022-11-20T06:11:06;99773.16;;;-5.52;84.37
59877;BME280;45749;51.140;17.184;2022-11-20T06:13:33;99765.06;;;-5.56;84.25
59877;BME280;45749;51.140;17.184;2022-11-20T06:16:00;99762.53;;;-5.59;84.08
59877;BME280;45749;51.140;17.184;2022-11-20T06:18:29;99758.33;;;-5.63;84.24
59877;BME280;45749;51.140;17.184;2022-11-20T06:21:06;99754.86;;;-5.61;84.43
59877;BME280;45749;51.140;17.184;2022-11-20T06:23:35;99752.69;;;-5.58;84.52
59877;BME280;45749;51.140;17.184;2022-11-20T06:26:04;99754.37;;;-5.56;84.66
59877;BME280;45749;51.140;17.184;2022-11-20T06:28:31;99755.61;;;-5.54;84.65
59877;BME280;45749;51.140;17.184;2022-11-20T06:30:58;99753.08;;;-5.56;84.48
59877;BME280;45749;51.140;17.184;2022-11-20T06:33:24;99750.12;;;-5.58;84.60
59877;BME280;45749;51.140;17.184;2022-11-20T06:35:51;99748.40;;;-5.59;84.69
59877;BME280;45749;51.140;17.184;2022-11-20T06:38:17;99749.72;;;-5.61;84.59
59877;BME280;45749;51.140;17.184;2022-11-20T06:40:43;99745.91;;;-5.62;84.80
59877;BME280;45749;51.140;17.184;2022-11-20T06:43:09;99745.91;;;-5.62;84.78
59877;BME280;45749;51.140;17.184;2022-11-20T06:45:36;99746.31;;;-5.63;84.82
59877;BME280;45749;51.140;17.184;2022-11-20T06:48:02;99745.91;;;-5.62;84.83
59877;BME280;45749;51.140;17.184;2022-11-20T06:50:29;99749.33;;;-5.63;84.94
59877;BME280;45749;51.140;17.184;2022-11-20T06:52:55;99745.87;;;-5.61;85.02
59877;BME280;45749;51.140;17.184;2022-11-20T06:55:20;99748.39;;;-5.58;85.06
59877;BME280;45749;51.140;17.184;2022-11-20T06:57:46;99755.61;;;-5.54;85.13
59877;BME280;45749;51.140;17.184;2022-11-20T07:00:13;99754.72;;;-5.52;85.16
59877;BME280;45749;51.140;17.184;2022-11-20T07:02:40;99755.97;;;-5.50;85.13
59877;BME280;45749;51.140;17.184;2022-11-20T07:05:06;99761.55;;;-5.49;85.26
59877;BME280;45749;51.140;17.184;2022-11-20T07:07:32;99761.50;;;-5.48;85.29
59877;BME280;45749;51.140;17.184;2022-11-20T07:09:58;99764.03;;;-5.45;85.45
59877;BME280;45749;51.140;17.184;2022-11-20T07:12:23;99766.15;;;-5.43;85.44
59877;BME280;45749;51.140;17.184;2022-11-20T07:14:49;99760.13;;;-5.42;85.46
59877;BME280;45749;51.140;17.184;2022-11-20T07:17:15;99758.39;;;-5.41;85.41
59877;BME280;45749;51.140;17.184;2022-11-20T07:19:41;99758.78;;;-5.38;85.63
59877;BME280;45749;51.140;17.184;2022-11-20T07:22:08;99757.89;;;-5.36;85.67
59877;BME280;45749;51.140;17.184;2022-11-20T07:24:34;99761.27;;;-5.34;85.58
59877;BME280;45749;51.140;17.184;2022-11-20T07:27:00;99761.27;;;-5.32;85.37
59877;BME280;45749;51.140;17.184;2022-11-20T07:29:26;99753.64;;;-5.38;85.30
59877;BME280;45749;51.140;17.184;2022-11-20T07:31:52;99760.03;;;-5.37;85.47
59877;BME280;45749;51.140;17.184;2022-11-20T07:34:18;99749.73;;;-5.35;85.91
59877;BME280;45749;51.140;17.184;2022-11-20T07:36:45;99751.78;;;-5.30;86.12
59877;BME280;45749;51.140;17.184;2022-11-20T07:39:11;99749.59;;;-5.26;86.21
59877;BME280;45749;51.140;17.184;2022-11-20T07:41:37;99751.22;;;-5.22;86.15
59877;BME280;45749;51.140;17.184;2022-11-20T07:44:03;99750.43;;;-5.26;86.09
59877;BME280;45749;51.140;17.184;2022-11-20T07:46:29;99748.20;;;-5.22;86.21
59877;BME280;45749;51.140;17.184;2022-11-20T07:48:55;99741.78;;;-5.22;86.20
59877;BME280;45749;51.140;17.184;2022-11-20T07:51:21;99745.14;;;-5.18;86.44
59877;BME280;45749;51.140;17.184;2022-11-20T07:53:47;99741.63;;;-5.14;86.41
59877;BME280;45749;51.140;17.184;2022-11-20T07:56:18;99734.34;;;-5.13;86.50
59877;BME280;45749;51.140;17.184;2022-11-20T07:58:43;99730.05;;;-5.12;86.77
59877;BME280;45749;51.140;17.184;2022-11-20T08:01:09;99725.24;;;-5.08;86.79
59877;BME280;45749;51.140;17.184;2022-11-20T08:03:36;99725.14;;;-5.04;86.94
59877;BME280;45749;51.140;17.184;2022-11-20T08:06:05;99728.11;;;-5.01;87.13
59877;BME280;45749;51.140;17.184;2022-11-20T08:08:32;99729.38;;;-5.00;87.19
59877;BME280;45749;51.140;17.184;2022-11-20T08:10:58;99731.90;;;-4.97;87.33
59877;BME280;45749;51.140;17.184;2022-11-20T08:13:43;99727.04;;;-4.89;87.85
59877;BME280;45749;51.140;17.184;2022-11-20T08:16:27;99720.45;;;-4.82;88.39
59877;BME280;45749;51.140;17.184;2022-11-20T08:18:54;99727.09;;;-4.70;88.87
59877;BME280;45749;51.140;17.184;2022-11-20T08:21:20;99729.84;;;-4.58;89.31
59877;BME280;45749;51.140;17.184;2022-11-20T08:23:46;99727.13;;;-4.51;88.95
59877;BME280;45749;51.140;17.184;2022-11-20T08:26:12;99729.98;;;-4.43;89.05
59877;BME280;45749;51.140;17.184;2022-11-20T08:28:38;99725.55;;;-4.37;89.05
59877;BME280;45749;51.140;17.184;2022-11-20T08:31:04;99717.20;;;-4.29;89.24
59877;BME280;45749;51.140;17.184;2022-11-20T08:33:30;99720.41;;;-4.17;89.07
59877;BME280;45749;51.140;17.184;2022-11-20T08:36:03;99713.83;;;-4.11;88.93
59877;BME280;45749;51.140;17.184;2022-11-20T08:38:30;99712.75;;;-4.03;89.27
59877;BME280;45749;51.140;17.184;2022-11-20T08:41:03;99703.45;;;-3.90;89.65
59877;BME280;45749;51.140;17.184;2022-11-20T08:43:48;99704.48;;;-3.80;89.62
59877;BME280;45749;51.140;17.184;2022-11-20T08:46:16;99705.48;;;-3.67;89.48
59877;BME280;45749;51.140;17.184;2022-11-20T08:48:42;99702.19;;;-3.56;89.64
59877;BME280;45749;51.140;17.184;2022-11-20T08:51:09;99707.94;;;-3.45;89.44
59877;BME280;45749;51.140;17.184;2022-11-20T08:53:36;99703.47;;;-3.38;89.22
59877;BME280;45749;51.140;17.184;2022-11-20T08:56:03;99700.23;;;-3.30;89.26
59877;BME280;45749;51.140;17.184;2022-11-20T08:58:29;99703.93;;;-3.22;89.06
59877;BME280;45749;51.140;17.184;2022-11-20T09:00:55;99699.88;;;-3.16;88.91
59877;BME280;45749;51.140;17.184;2022-11-20T09:03:21;99701.45;;;-3.11;88.55
59877;BME280;45749;51.140;17.184;2022-11-20T09:05:47;99694.00;;;-3.05;88.46
59877;BME280;45749;51.140;17.184;2022-11-20T09:08:13;99696.44;;;-3.00;88.38
59877;BME280;45749;51.140;17.184;2022-11-20T09:10:39;99697.94;;;-2.92;88.49
59877;BME280;45749;51.140;17.184;2022-11-20T09:13:08;99693.89;;;-2.86;88.47
59877;BME280;45749;51.140;17.184;2022-11-20T09:15:34;99699.23;;;-2.77;88.24
59877;BME280;45749;51.140;17.184;2022-11-20T09:18:01;99693.87;;;-2.69;87.99
59877;BME280;45749;51.140;17.184;2022-11-20T09:20:30;99687.63;;;-2.62;88.17
59877;BME280;45749;51.140;17.184;2022-11-20T09:22:56;99682.20;;;-2.53;88.01
59877;BME280;45749;51.140;17.184;2022-11-20T09:25:23;99678.00;;;-2.42;88.45
59877;BME280;45749;51.140;17.184;2022-11-20T09:27:58;99681.09;;;-2.31;88.23
59877;BME280;45749;51.140;17.184;2022-11-20T09:30:22;99673.46;;;-2.21;88.07
59877;BME280;45749;51.140;17.184;2022-11-20T09:32:48;99674.92;;;-2.12;87.92
59877;BME280;45749;51.140;17.184;2022-11-20T09:35:14;99672.84;;;-2.01;87.50
59877;BME280;45749;51.140;17.184;2022-11-20T09:37:40;99672.61;;;-1.93;87.44
59877;BME280;45749;51.140;17.184;2022-11-20T09:40:09;99667.09;;;-1.82;87.27
59877;BME280;45749;51.140;17.184;2022-11-20T09:43:32;99667.64;;;-1.73;86.92
59877;BME280;45749;51.140;17.184;2022-11-20T09:45:59;99663.00;;;-1.63;87.22
59877;BME280;45749;51.140;17.184;2022-11-20T09:54:19;99658.04;;;-1.31;86.06
59877;BME280;45749;51.140;17.184;2022-11-20T09:57:02;99654.69;;;-1.21;85.95
59877;BME280;45749;51.140;17.184;2022-11-20T09:59:58;99647.33;;;-1.08;86.54
59877;BME280;45749;51.140;17.184;2022-11-20T10:02:28;99641.58;;;-0.93;86.35
59877;BME280;45749;51.140;17.184;2022-11-20T10:10:41;99636.55;;;-0.51;84.44
59877;BME280;45749;51.140;17.184;2022-11-20T10:13:24;99643.06;;;-0.40;84.36
59877;BME280;45749;51.140;17.184;2022-11-20T10:16:10;99638.38;;;-0.31;84.54
59877;BME280;45749;51.140;17.184;2022-11-20T10:19:21;99628.10;;;-0.22;83.83
59877;BME280;45749;51.140;17.184;2022-11-20T10:31:03;99628.53;;;-0.01;81.65
59877;BME280;45749;51.140;17.184;2022-11-20T10:33:36;99620.87;;;-0.04;82.03
59877;BME280;45749;51.140;17.184;2022-11-20T10:36:13;99610.13;;;0.06;82.34
59877;BME280;45749;51.140;17.184;2022-11-20T10:38:58;99607.23;;;0.13;82.37
59877;BME280;45749;51.140;17.184;2022-11-20T10:41:40;99603.98;;;0.18;81.74
59877;BME280;45749;51.140;17.184;2022-11-20T10:44:15;99600.05;;;0.20;81.32
59877;BME280;45749;51.140;17.184;2022-11-20T10:47:13;99596.78;;;0.25;81.92
59877;BME280;45749;51.140;17.184;2022-11-20T10:49:42;99598.92;;;0.36;81.95
59877;BME280;45749;51.140;17.184;2022-11-20T10:55:30;99602.38;;;0.57;81.54
59877;BME280;45749;51.140;17.184;2022-11-20T10:58:14;99596.37;;;0.65;81.83
59877;BME280;45749;51.140;17.184;2022-11-20T11:01:04;99594.77;;;0.73;81.36
59877;BME280;45749;51.140;17.184;2022-11-20T11:03:32;99593.58;;;0.80;80.85
59877;BME280;45749;51.140;17.184;2022-11-20T11:08:58;99582.80;;;0.89;80.75
59877;BME280;45749;51.140;17.184;2022-11-20T11:11:30;99577.19;;;0.88;79.04
59877;BME280;45749;51.140;17.184;2022-11-20T11:14:09;99577.54;;;0.80;79.18
59877;BME280;45749;51.140;17.184;2022-11-20T11:16:51;99575.86;;;0.79;80.24
59877;BME280;45749;51.140;17.184;2022-11-20T11:19:19;99569.37;;;0.79;79.81
59877;BME280;45749;51.140;17.184;2022-11-20T11:21:54;99568.07;;;0.79;80.01
59877;BME280;45749;51.140;17.184;2022-11-20T11:24:22;99573.64;;;0.80;79.84
59877;BME280;45749;51.140;17.184;2022-11-20T11:27:02;99576.02;;;0.85;79.71
59877;BME280;45749;51.140;17.184;2022-11-20T11:29:27;99573.99;;;0.91;79.99
59877;BME280;45749;51.140;17.184;2022-11-20T11:32:13;99570.50;;;0.92;79.58
59877;BME280;45749;51.140;17.184;2022-11-20T11:34:40;99566.47;;;0.96;79.56
59877;BME280;45749;51.140;17.184;2022-11-20T11:37:18;99560.35;;;0.97;79.62
59877;BME280;45749;51.140;17.184;2022-11-20T11:39:47;99552.94;;;0.98;79.04
59877;BME280;45749;51.140;17.184;2022-11-20T11:42:16;99547.83;;;0.96;79.06
59877;BME280;45749;51.140;17.184;2022-11-20T11:44:45;99542.69;;;0.94;78.52
59877;BME280;45749;51.140;17.184;2022-11-20T11:47:32;99532.23;;;0.96;78.90
59877;BME280;45749;51.140;17.184;2022-11-20T11:55:36;99529.88;;;1.00;78.23
59877;BME280;45749;51.140;17.184;2022-11-20T11:58:14;99528.12;;;1.01;78.15
59877;BME280;45749;51.140;17.184;2022-11-20T12:00:54;99524.17;;;1.02;78.42
59877;BME280;45749;51.140;17.184;2022-11-20T12:03:33;99525.62;;;1.08;78.86
59877;BME280;45749;51.140;17.184;2022-11-20T12:06:15;99522.42;;;1.11;77.84
59877;BME280;45749;51.140;17.184;2022-11-20T12:08:46;99518.47;;;1.13;78.28
59877;BME280;45749;51.140;17.184;2022-11-20T12:14:28;99514.20;;;1.21;77.93
59877;BME280;45749;51.140;17.184;2022-11-20T12:17:01;99508.80;;;1.25;77.76
59877;BME280;45749;51.140;17.184;2022-11-20T12:19:30;99511.17;;;1.30;77.99
59877;BME280;45749;51.140;17.184;2022-11-20T12:30:24;99508.98;;;1.39;77.73
59877;BME280;45749;51.140;17.184;2022-11-20T12:41:55;99502.24;;;1.44;76.64
59877;BME280;45749;51.140;17.184;2022-11-20T12:44:50;99505.68;;;1.45;77.33
59877;BME280;45749;51.140;17.184;2022-11-20T12:53:56;99512.81;;;1.50;77.43
59877;BME280;45749;51.140;17.184;2022-11-20T13:02:23;99492.94;;;1.49;77.43
59877;BME280;45749;51.140;17.184;2022-11-20T13:05:24;99486.30;;;1.52;77.26
59877;BME280;45749;51.140;17.184;2022-11-20T13:07:54;99482.67;;;1.54;77.20
59877;BME280;45749;51.140;17.184;2022-11-20T13:16:05;99476.64;;;1.54;76.78
59877;BME280;45749;51.140;17.184;2022-11-20T13:18:36;99466.09;;;1.57;77.23
59877;BME280;45749;51.140;17.184;2022-11-20T13:21:19;99461.20;;;1.59;76.88
59877;BME280;45749;51.140;17.184;2022-11-20T13:29:44;99451.27;;;1.59;76.80
59877;BME280;45749;51.140;17.184;2022-11-20T13:32:19;99449.19;;;1.57;76.31
59877;BME280;45749;51.140;17.184;2022-11-20T13:35:00;99441.33;;;1.58;76.09
59877;BME280;45749;51.140;17.184;2022-11-20T13:37:32;99437.34;;;1.60;76.22
59877;BME280;45749;51.140;17.184;2022-11-20T13:42:45;99434.12;;;1.63;75.63
59877;BME280;45749;51.140;17.184;2022-11-20T13:45:29;99439.88;;;1.61;75.41
59877;BME280;45749;51.140;17.184;2022-11-20T13:48:04;99442.48;;;1.61;75.47
59877;BME280;45749;51.140;17.184;2022-11-20T13:51:07;99445.91;;;1.62;75.39
59877;BME280;45749;51.140;17.184;2022-11-20T13:53:46;99434.27;;;1.60;75.30
59877;BME280;45749;51.140;17.184;2022-11-20T13:56:53;99434.42;;;1.57;74.90
59877;BME280;45749;51.140;17.184;2022-11-20T13:59:51;99430.61;;;1.56;74.83
59877;BME280;45749;51.140;17.184;2022-11-20T14:02:28;99426.09;;;1.51;74.95
59877;BME280;45749;51.140;17.184;2022-11-20T14:04:57;99427.16;;;1.47;74.86
59877;BME280;45749;51.140;17.184;2022-11-20T14:07:35;99426.70;;;1.47;75.01
59877;BME280;45749;51.140;17.184;2022-11-20T14:10:05;99421.03;;;1.48;75.28
59877;BME280;45749;51.140;17.184;2022-11-20T14:12:33;99420.14;;;1.49;75.40
59877;BME280;45749;51.140;17.184;2022-11-20T14:15:00;99419.30;;;1.48;75.21
59877;BME280;45749;51.140;17.184;2022-11-20T14:17:34;99418.90;;;1.47;75.11
59877;BME280;45749;51.140;17.184;2022-11-20T14:20:06;99409.89;;;1.46;75.21
59877;BME280;45749;51.140;17.184;2022-11-20T14:22:34;99415.61;;;1.44;75.23
59877;BME280;45749;51.140;17.184;2022-11-20T14:25:17;99415.15;;;1.44;75.52
59877;BME280;45749;51.140;17.184;2022-11-20T14:27:44;99412.55;;;1.44;75.40
59877;BME280;45749;51.140;17.184;2022-11-20T14:30:18;99408.74;;;1.43;75.65
59877;BME280;45749;51.140;17.184;2022-11-20T14:32:46;99408.43;;;1.40;75.40
59877;BME280;45749;51.140;17.184;2022-11-20T14:35:18;99417.77;;;1.35;75.70
59877;BME280;45749;51.140;17.184;2022-11-20T14:37:44;99410.86;;;1.34;75.82